Latest Weather Observations for Padthaway

IDS60801

Issued at 6:35 pm CST Monday 15 September 2014 (issued every 30 minutes, with the page automatically refreshed every 10 minutes)

About weather observations | Map of weather stations | Latest weather observations for SA | Other Formats
Station Details ID: 026100 Name: PADTHAWAY SOUTH Lat: -36.65 Lon: 140.52 Height: 37.0 m
Data from the previous 72 hours. | See also: Recent months at Padthaway
Date/Time
CST
Temp
°C
App
Temp
°C
Dew
Point
Rel
Hum
%
Delta-T
°C
Wind Press
QNH
hPa
Press
MSL
hPa
Rain
since 9 am
mm
Dir
 
Spd
km/h
Gust
km/h
Spd
kts
Gust
kts
15/06:30pm 13.4 9.8 10.4 82 1.6 SW 20 30 11 16 - - 0.0
15/06:00pm 15.2 11.7 11.0 76 2.2 SSW 20 30 11 16 - - 0.0
15/05:30pm 16.4 12.8 10.5 68 3.1 S 20 24 11 13 - - 0.0
15/05:00pm 16.6 13.0 10.0 65 3.5 SSW 19 24 10 13 - - 0.0
15/04:30pm 16.9 13.8 10.3 65 3.5 SSW 17 26 9 14 - - 0.0
15/04:00pm 17.3 14.4 9.7 61 4.0 SSW 15 22 8 12 - - 0.0
15/03:30pm 17.6 14.7 9.8 60 4.1 SSW 15 20 8 11 - - 0.0
15/03:00pm 18.2 15.2 7.6 50 5.4 SSW 13 20 7 11 - - 0.0
15/02:30pm 19.3 15.8 7.4 46 6.1 S 15 22 8 12 - - 0.0
15/02:00pm 19.3 16.6 5.7 41 6.7 S 9 17 5 9 - - 0.0
15/01:30pm 18.8 16.5 4.9 40 6.7 NW 6 15 3 8 - - 0.0
15/01:00pm 19.0 16.1 4.7 39 6.9 NNW 9 17 5 9 - - 0.0
15/12:30pm 18.4 15.5 4.9 41 6.5 SSE 9 13 5 7 - - 0.0
15/12:00pm 18.4 16.2 5.3 42 6.4 NE 6 11 3 6 - - 0.0
15/11:30am 17.7 14.4 4.6 42 6.2 NE 11 17 6 9 - - 0.0
15/11:00am 17.1 14.1 6.0 48 5.4 ESE 11 19 6 10 - - 0.0
15/10:30am 16.3 13.1 5.3 48 5.3 ESE 11 19 6 10 - - 0.0
15/10:00am 16.3 13.0 6.2 51 4.9 E 13 17 7 9 - - 0.0
15/09:30am 15.4 12.2 5.3 51 4.8 NE 11 20 6 11 - - 0.0
15/09:00am 15.3 11.6 7.8 61 3.7 E 17 22 9 12 - - 0.0
15/08:30am 13.9 10.1 7.4 65 3.2 E 17 22 9 12 - - 0.0
15/08:00am 12.5 9.5 7.6 72 2.4 ESE 13 17 7 9 - - 0.0
15/07:30am 12.0 8.9 7.1 72 2.4 SE 13 19 7 10 - - 0.0
15/07:00am 11.2 8.4 6.9 75 2.0 SE 11 13 6 7 - - 0.0
15/06:30am 11.5 9.0 6.4 71 2.4 ESE 9 13 5 7 - - 0.0
15/06:00am 12.1 7.1 6.4 68 2.7 E 22 32 12 17 - - 0.0
15/05:30am 11.6 7.2 6.5 71 2.4 ESE 19 24 10 13 - - 0.0
15/05:00am 13.1 8.0 6.0 62 3.4 E 22 30 12 16 - - 0.0
15/04:30am 13.6 7.7 6.0 60 3.6 E 26 33 14 18 - - 0.0
15/04:00am 13.7 7.6 6.6 62 3.4 E 28 37 15 20 - - 0.0
15/03:30am 13.5 7.6 7.5 67 2.9 E 28 37 15 20 - - 0.0
15/03:00am 13.2 8.6 8.3 72 2.4 E 22 32 12 17 - - 0.0
15/02:30am 13.1 8.6 8.4 73 2.3 E 22 33 12 18 - - 0.0
15/02:00am 13.2 8.3 8.5 73 2.3 E 24 32 13 17 - - 0.0
15/01:30am 13.2 7.6 8.9 75 2.2 E 28 35 15 19 - - 0.0
15/01:00am 13.0 7.8 8.9 76 2.1 E 26 35 14 19 - - 0.0
15/12:30am 13.2 8.5 9.1 76 2.1 E 24 35 13 19 - - 0.0
15/12:00am 13.0 8.7 9.3 78 1.9 E 22 30 12 16 - - 0.0
 
Date/Time
CST
Temp
°C
App
Temp
°C
Dew
Point
Rel
Hum
%
Delta-T
°C
Wind Press
QNH
hPa
Press
MSL
hPa
Rain
since 9 am
mm
Dir
 
Spd
km/h
Gust
km/h
Spd
kts
Gust
kts
14/11:30pm 13.3 9.4 9.4 77 2.0 ESE 20 30 11 16 - - 0.0
14/11:00pm 13.7 9.5 9.6 76 2.1 E 22 35 12 19 - - 0.0
14/10:30pm 13.8 9.6 9.6 76 2.2 ESE 22 32 12 17 - - 0.0
14/10:00pm 14.1 9.1 9.7 75 2.3 ESE 26 35 14 19 - - 0.0
14/09:30pm 14.4 9.7 9.2 71 2.7 ESE 24 33 13 18 - - 0.0
14/09:00pm 14.1 10.3 9.1 72 2.5 ESE 19 24 10 13 - - 0.0
14/08:30pm 13.1 10.1 9.4 78 1.9 ESE 15 17 8 9 - - 0.0
14/08:00pm 13.2 11.1 9.8 80 1.7 SSE 11 13 6 7 - - 0.0
14/07:30pm 13.6 13.5 9.5 76 2.1 CALM 0 0 0 0 - - 0.0
14/07:00pm 14.0 13.4 9.0 72 2.5 ESE 2 7 1 4 - - 0.0
14/06:30pm 14.3 12.4 9.1 71 2.7 SE 9 13 5 7 - - 0.0
14/06:00pm 14.8 12.8 8.5 66 3.2 SSE 9 13 5 7 - - 0.0
14/05:30pm 15.7 13.6 8.4 62 3.7 SSE 9 11 5 6 - - 0.0
14/05:00pm 16.0 13.4 7.7 58 4.2 SSE 11 13 6 7 - - 0.0
14/04:30pm 16.8 13.5 6.3 50 5.1 S 13 17 7 9 - - 0.0
14/04:00pm 17.3 14.8 6.5 49 5.3 S 9 13 5 7 - - 0.0
14/03:30pm 17.6 15.6 7.1 50 5.3 SSW 7 11 4 6 - - 0.0
14/03:00pm 17.4 15.2 8.0 54 4.8 SSW 9 13 5 7 - - 0.0
14/02:30pm 16.5 14.4 6.6 52 4.9 SSW 7 11 4 6 - - 0.0
14/02:00pm 17.2 15.0 6.1 48 5.4 S 7 13 4 7 - - 0.0
14/01:30pm 17.4 15.5 6.6 49 5.3 SSW 6 11 3 6 - - 0.0
14/01:00pm 17.3 14.6 7.4 52 5.0 S 11 13 6 7 - - 0.0
14/12:30pm 16.7 14.5 7.9 56 4.4 SSW 9 15 5 8 - - 0.0
14/12:00pm 17.0 14.3 7.4 53 4.8 ESE 11 19 6 10 - - 0.0
14/11:30am 16.8 13.9 8.2 57 4.4 SSE 13 20 7 11 - - 0.0
14/11:00am 16.1 12.7 7.6 57 4.3 SSE 15 20 8 11 - - 0.0
14/10:30am 15.2 12.0 8.4 64 3.4 SSE 15 19 8 10 - - 0.0
14/10:00am 14.7 11.9 8.4 66 3.2 SSE 13 17 7 9 - - 0.0
14/09:30am 13.5 11.1 8.8 73 2.4 SE 11 15 6 8 - - 0.0
14/09:00am 11.4 8.7 7.3 76 2.0 SE 11 15 6 8 - - 0.0
14/08:30am 9.5 7.5 7.1 85 1.1 SSE 7 9 4 5 - - 0.0
14/08:00am 7.8 4.9 6.7 93 0.5 SE 11 13 6 7 - - 0.0
14/07:30am 6.1 4.4 5.7 97 0.2 SE 4 7 2 4 - - 0.0
14/07:00am 4.2 2.8 3.8 97 0.2 CALM 0 0 0 0 - - 0.0
14/06:30am 3.1 0.2 2.5 96 0.2 SE 7 7 4 4 - - 0.0
14/06:00am 3.1 0.4 2.5 96 0.2 SSE 6 7 3 4 - - 0.0
14/05:30am 3.5 0.7 2.9 96 0.2 SSE 7 9 4 5 - - 0.0
14/05:00am 3.4 0.2 2.8 96 0.2 SE 9 13 5 7 - - 0.0
14/04:30am 3.9 1.1 3.2 95 0.3 SSE 7 11 4 6 - - 0.0
14/04:00am 4.0 0.8 3.3 95 0.3 SE 9 13 5 7 - - 0.0
14/03:30am 4.3 1.2 3.6 95 0.3 SE 9 11 5 6 - - 0.0
14/03:00am 4.6 1.9 3.9 95 0.3 SSE 7 9 4 5 - - 0.0
14/02:30am 4.4 1.3 3.5 94 0.4 SSE 9 9 5 5 - - 0.0
14/02:00am 5.0 2.0 4.0 93 0.4 SSE 9 11 5 6 - - 0.0
14/01:30am 5.2 2.6 4.2 93 0.4 SE 7 9 4 5 - - 0.0
14/01:00am 5.7 2.8 4.5 92 0.5 SE 9 9 5 5 - - 0.0
14/12:30am 6.3 3.0 4.8 90 0.7 SSE 11 13 6 7 - - 0.0
14/12:00am 6.8 3.3 5.3 90 0.7 SE 13 15 7 8 - - 0.0
 
Date/Time
CST
Temp
°C
App
Temp
°C
Dew
Point
Rel
Hum
%
Delta-T
°C
Wind Press
QNH
hPa
Press
MSL
hPa
Rain
since 9 am
mm
Dir
 
Spd
km/h
Gust
km/h
Spd
kts
Gust
kts
13/11:30pm 7.5 4.8 5.5 87 0.9 SSE 9 13 5 7 - - 0.0
13/11:00pm 8.2 5.6 6.2 87 0.9 S 9 11 5 6 - - 0.0
13/10:30pm 8.6 5.3 6.4 86 1.0 SSE 13 15 7 8 - - 0.0
13/10:00pm 8.9 6.0 6.7 86 1.0 SE 11 15 6 8 - - 0.0
13/09:30pm 8.9 6.0 6.7 86 1.0 SE 11 15 6 8 - - 0.0
13/09:00pm 10.0 7.6 6.9 81 1.5 SE 9 13 5 7 - - 0.0
13/08:30pm 10.7 7.9 6.8 77 1.8 S 11 13 6 7 - - 0.0
13/08:00pm 11.9 9.5 7.0 72 2.3 S 9 11 5 6 - - 0.0
13/07:30pm 11.8 9.7 6.7 71 2.4 S 7 9 4 5 - - 0.0
13/07:00pm 12.2 9.7 6.7 69 2.6 SSW 9 13 5 7 - - 0.0
13/06:30pm 12.8 10.1 7.3 69 2.7 WSW 11 13 6 7 - - 0.0
13/06:00pm 16.3 14.3 6.4 52 4.8 S 6 7 3 4 - - 0.0
13/05:30pm 18.1 17.2 6.0 45 5.9 CALM 0 0 0 0 - - 0.0
13/05:00pm 18.9 17.7 4.7 39 6.8 CALM 0 0 0 0 - - 0.0
13/04:30pm 19.4 16.7 5.8 41 6.7 WSW 9 13 5 7 - - 0.0
13/04:00pm 19.7 17.1 6.1 41 6.8 WNW 9 17 5 9 - - 0.0
13/03:30pm 19.3 16.9 6.8 44 6.3 W 9 15 5 8 - - 0.0
13/03:00pm 19.3 16.6 5.7 41 6.7 WNW 9 19 5 10 - - 0.0
13/02:30pm 19.6 16.7 6.3 42 6.6 NW 11 15 6 8 - - 0.0
13/02:00pm 18.8 15.8 6.0 43 6.3 N 11 17 6 9 - - 0.0
13/01:30pm 18.6 16.2 6.8 46 5.9 NW 9 19 5 10 - - 0.0
13/01:00pm 18.1 14.4 6.3 46 5.8 NNW 15 22 8 12 - - 0.0
13/12:30pm 17.4 13.6 5.7 46 5.7 NNW 15 22 8 12 - - 0.0
13/12:00pm 16.7 12.7 5.0 46 5.6 NNW 15 20 8 11 - - 0.0
13/11:30am 16.6 12.8 5.9 49 5.2 NNW 15 24 8 13 - - 0.0
13/11:00am 16.1 12.3 6.0 51 4.9 NNW 15 22 8 12 - - 0.0
13/10:30am 15.5 11.9 5.1 50 4.9 N 13 20 7 11 - - 0.0
13/10:00am 15.0 11.2 5.8 54 4.4 N 15 22 8 12 - - 0.0
13/09:30am 14.4 10.6 6.0 57 4.0 N 15 20 8 11 - - 0.0
13/09:00am 13.2 10.1 5.4 59 3.6 N 11 15 6 8 - - 0.0
13/08:30am 10.9 10.2 7.0 77 1.9 CALM 0 4 0 2 - - 0.0
13/08:00am 7.8 7.1 6.9 94 0.4 CALM 0 0 0 0 - - 0.0
13/07:30am 5.1 3.9 4.5 96 0.3 CALM 0 0 0 0 - - 0.0
13/07:00am 2.9 1.3 2.2 95 0.3 CALM 0 0 0 0 - - 0.0
13/06:30am 1.3 -1.4 0.6 95 0.3 ENE 4 7 2 4 - - 0.0
13/06:00am 1.3 -1.7 0.6 95 0.3 E 6 11 3 6 - - 0.0
13/05:30am 1.4 -0.5 0.5 94 0.3 CALM 0 0 0 0 - - 0.0
13/05:00am 1.5 -0.4 0.6 94 0.3 CALM 0 0 0 0 - - 0.0
13/04:30am 1.8 0.0 0.9 94 0.3 CALM 0 0 0 0 - - 0.0
13/04:00am 2.1 0.3 1.2 94 0.3 CALM 0 0 0 0 - - 0.0
13/03:30am 1.9 0.1 1.0 94 0.3 CALM 0 0 0 0 - - 0.0
13/03:00am 2.1 0.3 1.1 93 0.4 CALM 0 0 0 0 - - 0.0
13/02:30am 2.7 1.0 1.8 94 0.3 CALM 0 0 0 0 - - 0.0
13/02:00am 2.9 1.2 1.9 93 0.4 CALM 0 0 0 0 - - 0.0
13/01:30am 2.7 0.9 1.5 92 0.5 CALM 0 0 0 0 - - 0.0
13/01:00am 3.3 1.6 2.1 92 0.5 CALM 0 0 0 0 - - 0.0
13/12:30am 4.0 2.5 2.8 92 0.5 CALM 0 0 0 0 - - 0.0
13/12:00am 4.4 2.9 3.1 91 0.5 CALM 0 0 0 0 - - 0.0
 
Date/Time
CST
Temp
°C
App
Temp
°C
Dew
Point
Rel
Hum
%
Delta-T
°C
Wind Press
QNH
hPa
Press
MSL
hPa
Rain
since 9 am
mm
Dir
 
Spd
km/h
Gust
km/h
Spd
kts
Gust
kts
12/11:30pm 5.0 3.6 3.5 90 0.6 CALM 0 0 0 0 - - 0.0
12/11:00pm 5.6 4.3 3.9 89 0.7 CALM 0 0 0 0 - - 0.0
12/10:30pm 6.3 5.0 4.3 87 0.9 CALM 0 0 0 0 - - 0.0
12/10:00pm 7.3 6.2 4.9 85 1.1 CALM 0 0 0 0 - - 0.0
12/09:30pm 8.2 7.2 5.7 84 1.1 CALM 0 6 0 3 - - 0.0
12/09:00pm 9.1 6.9 6.2 82 1.3 E 7 9 4 5 - - 0.0
12/08:30pm 9.4 8.5 6.1 80 1.5 CALM 0 6 0 3 - - 0.0
12/08:00pm 10.8 10.1 6.9 77 1.9 CALM 0 0 0 0 - - 0.0
12/07:30pm 11.9 9.9 7.0 72 2.3 SSW 7 11 4 6 - - 0.0
12/07:00pm 11.9 9.7 7.8 76 2.0 SW 9 11 5 6 - - 0.0

Other Formats:

Comma delimited format used in spreadsheet applications
http://www.bom.gov.au/fwo/IDS60801/IDS60801.95823.axf

JavaScript Object Notation format (JSON) in row-major order
http://www.bom.gov.au/fwo/IDS60801/IDS60801.95823.json